createdAt,value
2022-08-07T00:01:43.205Z,24.40
2022-08-07T00:03:55.772Z,24.40
2022-08-07T00:06:32.941Z,24.50
2022-08-07T00:09:16.316Z,24.50
2022-08-07T00:11:48.115Z,24.50
2022-08-07T00:14:30.046Z,24.50
2022-08-07T00:17:00.044Z,24.40
2022-08-07T00:20:03.088Z,24.30
2022-08-07T00:22:34.512Z,24.30
2022-08-07T00:25:07.012Z,24.30
2022-08-07T00:27:52.358Z,24.30
2022-08-07T00:30:27.506Z,24.40
2022-08-07T00:32:58.304Z,24.40
2022-08-07T00:35:30.517Z,24.50
2022-08-07T00:37:59.760Z,24.40
2022-08-07T00:40:36.257Z,24.30
2022-08-07T00:43:10.647Z,24.30
2022-08-07T00:45:59.170Z,24.40
2022-08-07T00:48:32.249Z,24.30
2022-08-07T00:51:04.908Z,24.30
2022-08-07T00:53:38.583Z,24.30
2022-08-07T00:56:17.758Z,24.40
2022-08-07T00:58:49.518Z,24.40
2022-08-07T01:01:20.383Z,24.30
2022-08-07T01:03:55.393Z,24.30
2022-08-07T01:06:28.101Z,24.30
2022-08-07T01:09:00.790Z,24.20
2022-08-07T01:12:23.740Z,24.20
2022-08-07T01:14:21.161Z,24.30
2022-08-07T01:17:00.175Z,24.30
2022-08-07T01:19:34.954Z,24.30
2022-08-07T01:22:16.242Z,24.30
2022-08-07T01:24:51.894Z,24.40
2022-08-07T01:27:20.599Z,24.40
2022-08-07T01:29:50.618Z,24.40
2022-08-07T01:32:22.531Z,24.40
2022-08-07T01:34:54.392Z,24.40
2022-08-07T01:37:26.983Z,24.40
2022-08-07T01:40:02.310Z,24.40
2022-08-07T01:42:58.803Z,24.40
2022-08-07T01:45:37.260Z,24.30
2022-08-07T01:48:29.380Z,24.30
2022-08-07T01:51:24.108Z,24.20
2022-08-07T01:54:09.412Z,24.20
2022-08-07T01:56:49.806Z,24.10
2022-08-07T01:59:31.021Z,24.10
2022-08-07T02:02:07.098Z,24.10
2022-08-07T02:04:55.608Z,24.10
2022-08-07T02:07:44.863Z,24.10
2022-08-07T02:10:26.581Z,24.10
2022-08-07T02:13:02.645Z,24.10
2022-08-07T02:15:41.103Z,24.10
2022-08-07T02:18:13.427Z,24.10
2022-08-07T02:20:48.715Z,24.10
2022-08-07T02:23:25.945Z,24.10
2022-08-07T02:26:30.799Z,24.10
2022-08-07T02:28:49.246Z,24.10
2022-08-07T02:31:28.772Z,24.10
2022-08-07T02:34:03.336Z,24.10
2022-08-07T02:36:38.337Z,24.20
2022-08-07T02:39:17.102Z,24.20
2022-08-07T02:42:10.354Z,24.30
2022-08-07T02:44:48.268Z,24.30
2022-08-07T02:47:23.798Z,24.30
2022-08-07T02:50:00.151Z,24.40
2022-08-07T02:52:37.330Z,24.40
2022-08-07T02:55:27.642Z,24.50
2022-08-07T02:58:04.093Z,24.50
2022-08-07T03:00:39.277Z,24.50
2022-08-07T03:03:13.437Z,24.60
2022-08-07T03:05:46.991Z,24.60
2022-08-07T03:08:19.252Z,24.60
2022-08-07T03:10:57.534Z,24.60
2022-08-07T03:13:39.315Z,24.60
2022-08-07T03:16:27.777Z,24.70
2022-08-07T03:18:58.502Z,24.80
2022-08-07T03:21:28.921Z,24.80
2022-08-07T03:24:19.629Z,24.80
2022-08-07T03:26:59.222Z,24.80
2022-08-07T03:29:37.571Z,24.90
2022-08-07T03:32:13.319Z,24.90
2022-08-07T03:34:47.240Z,24.90
2022-08-07T03:37:45.941Z,24.90
2022-08-07T03:40:16.876Z,25.00
2022-08-07T03:42:46.346Z,25.00
2022-08-07T03:45:30.437Z,24.90
2022-08-07T03:48:04.504Z,24.90
2022-08-07T03:50:39.772Z,24.80
2022-08-07T03:53:17.425Z,24.70
2022-08-07T03:55:58.094Z,24.60
2022-08-07T03:59:08.153Z,24.50
2022-08-07T04:01:32.302Z,24.50
2022-08-07T04:04:04.976Z,24.40
2022-08-07T04:06:38.798Z,24.30
2022-08-07T04:09:19.303Z,24.30
2022-08-07T04:12:24.850Z,24.30
2022-08-07T04:14:46.278Z,24.30
2022-08-07T04:17:22.166Z,24.30
2022-08-07T04:19:57.442Z,24.30
2022-08-07T04:22:30.060Z,24.30
2022-08-07T04:25:08.896Z,24.30
2022-08-07T04:27:44.264Z,24.20
2022-08-07T04:30:21.518Z,24.20
2022-08-07T04:33:17.768Z,24.20
2022-08-07T04:35:54.114Z,24.40
2022-08-07T04:38:27.670Z,24.50
2022-08-07T04:40:58.570Z,24.60
2022-08-07T04:44:13.142Z,24.70
2022-08-07T04:46:36.032Z,24.70
2022-08-07T04:49:37.807Z,24.70
2022-08-07T04:52:15.671Z,24.60
2022-08-07T04:54:55.478Z,24.50
2022-08-07T04:58:11.699Z,24.50
2022-08-07T05:00:30.767Z,24.50
2022-08-07T05:03:31.156Z,24.60
2022-08-07T05:06:19.482Z,24.60
2022-08-07T05:09:00.672Z,24.70
2022-08-07T05:11:58.027Z,24.80
2022-08-07T05:14:55.213Z,24.90
2022-08-07T05:17:51.965Z,24.90
2022-08-07T05:20:21.386Z,25.10
2022-08-07T05:22:57.963Z,25.20
2022-08-07T05:26:10.882Z,25.40
2022-08-07T05:28:22.563Z,25.60
2022-08-07T05:30:58.369Z,25.90
2022-08-07T05:33:30.158Z,26.20
2022-08-07T05:36:00.361Z,26.30
2022-08-07T05:39:00.729Z,26.30
2022-08-07T05:41:21.706Z,26.30
2022-08-07T05:44:08.806Z,26.30
2022-08-07T05:46:47.631Z,26.20
2022-08-07T05:49:24.625Z,26.20
2022-08-07T05:51:56.141Z,26.20
2022-08-07T05:54:30.292Z,26.20
2022-08-07T05:57:02.657Z,26.10
2022-08-07T05:59:47.250Z,26.00
2022-08-07T06:02:32.333Z,26.00
2022-08-07T06:05:07.080Z,26.00
2022-08-07T06:08:13.362Z,25.90
2022-08-07T06:10:28.840Z,25.90
2022-08-07T06:12:58.135Z,25.90
2022-08-07T06:15:38.922Z,25.90
2022-08-07T06:18:12.385Z,25.90
2022-08-07T06:20:49.613Z,25.90
2022-08-07T06:23:46.373Z,26.00
2022-08-07T06:26:14.220Z,26.00
2022-08-07T06:28:53.386Z,26.10
2022-08-07T06:31:24.111Z,26.10
2022-08-07T06:34:07.980Z,26.10
2022-08-07T06:36:37.418Z,26.10
2022-08-07T06:40:16.058Z,26.10
2022-08-07T06:42:04.631Z,26.10
2022-08-07T06:45:07.669Z,26.10
2022-08-07T06:47:57.602Z,26.10
2022-08-07T06:50:36.151Z,26.00
2022-08-07T06:53:18.791Z,26.00
2022-08-07T06:56:02.089Z,26.10
2022-08-07T06:58:38.607Z,26.00
2022-08-07T07:01:16.840Z,26.00
2022-08-07T07:03:48.141Z,26.00
2022-08-07T07:06:23.926Z,26.00
2022-08-07T07:08:57.046Z,25.90
2022-08-07T07:12:09.168Z,25.80
2022-08-07T07:14:22.593Z,25.60
2022-08-07T07:16:54.259Z,25.60
2022-08-07T07:19:56.618Z,25.50
2022-08-07T07:22:35.703Z,25.40
2022-08-07T07:26:31.696Z,25.30
2022-08-07T07:28:07.594Z,25.30
2022-08-07T07:31:00.909Z,25.20
2022-08-07T07:33:31.853Z,25.30
2022-08-07T07:36:05.455Z,25.40
2022-08-07T07:38:46.112Z,26.20
2022-08-07T07:41:18.104Z,27.20
2022-08-07T07:44:17.660Z,27.90
2022-08-07T07:46:55.200Z,28.60
2022-08-07T07:50:33.818Z,29.00
2022-08-07T07:52:20.884Z,29.50
2022-08-07T07:54:52.819Z,29.90
2022-08-07T07:57:51.608Z,29.70
2022-08-07T08:00:15.003Z,29.90
2022-08-07T08:03:05.303Z,29.80
2022-08-07T08:05:53.847Z,29.60
2022-08-07T08:11:17.731Z,29.40
2022-08-07T08:14:02.865Z,29.50
2022-08-07T08:16:35.438Z,29.60
2022-08-07T08:19:17.425Z,29.20
2022-08-07T08:22:15.999Z,29.60
2022-08-07T08:25:09.441Z,29.10
2022-08-07T08:27:56.236Z,28.40
2022-08-07T08:30:27.120Z,28.70
2022-08-07T08:32:59.862Z,28.90
2022-08-07T08:35:42.939Z,29.10
2022-08-07T08:38:30.004Z,29.30
2022-08-07T08:41:16.874Z,29.60
2022-08-07T08:43:56.130Z,30.00
2022-08-07T08:46:38.491Z,30.50
2022-08-07T08:49:17.888Z,30.50
2022-08-07T08:52:13.815Z,30.50
2022-08-07T08:54:50.525Z,29.80
2022-08-07T08:57:30.414Z,29.30
2022-08-07T09:00:06.335Z,29.10
2022-08-07T09:02:42.467Z,28.90
2022-08-07T09:05:36.624Z,28.70
2022-08-07T09:08:28.167Z,28.80
2022-08-07T09:11:24.749Z,29.20
2022-08-07T09:14:12.270Z,29.20
2022-08-07T09:16:55.615Z,29.10
2022-08-07T09:19:53.643Z,29.00
2022-08-07T09:24:33.578Z,28.90
2022-08-07T09:25:43.813Z,28.90
2022-08-07T09:30:05.475Z,28.90
2022-08-07T09:31:48.654Z,28.80
2022-08-07T09:34:26.159Z,29.00
2022-08-07T09:37:03.279Z,29.10
2022-08-07T09:39:55.093Z,29.50
2022-08-07T09:42:53.960Z,29.60
2022-08-07T09:47:25.040Z,30.10
2022-08-07T09:48:45.335Z,30.00
2022-08-07T09:52:10.034Z,29.90
2022-08-07T09:54:39.564Z,29.80
2022-08-07T09:57:32.456Z,29.90
2022-08-07T10:00:14.558Z,29.80
2022-08-07T10:04:05.128Z,30.00
2022-08-07T10:06:55.680Z,30.10
2022-08-07T10:09:59.230Z,30.20
2022-08-07T10:12:53.626Z,30.30
2022-08-07T10:15:48.084Z,30.10
2022-08-07T10:18:39.768Z,30.30
2022-08-07T10:22:12.366Z,30.00
2022-08-07T10:24:33.318Z,29.70
2022-08-07T10:27:22.991Z,29.80
2022-08-07T10:30:07.115Z,30.20
2022-08-07T10:33:15.552Z,30.40
2022-08-07T10:36:10.861Z,30.40
2022-08-07T10:38:52.911Z,30.20
2022-08-07T10:41:53.131Z,30.20
2022-08-07T10:44:33.733Z,30.00
2022-08-07T10:47:14.654Z,29.90
2022-08-07T10:49:53.088Z,29.70
2022-08-07T10:52:31.877Z,29.50
2022-08-07T10:55:32.529Z,29.40
2022-08-07T10:58:10.214Z,29.10
2022-08-07T11:00:56.304Z,29.10
2022-08-07T11:03:37.657Z,29.10
2022-08-07T11:06:23.004Z,29.20
2022-08-07T11:09:02.803Z,29.20
2022-08-07T11:11:37.523Z,29.00
2022-08-07T11:14:43.608Z,29.00
2022-08-07T11:17:11.524Z,28.90
2022-08-07T11:19:52.167Z,28.90
2022-08-07T11:22:37.186Z,29.00
2022-08-07T11:25:19.689Z,29.10
2022-08-07T11:28:01.742Z,29.20
2022-08-07T11:30:42.786Z,29.10
2022-08-07T11:33:59.415Z,29.20
2022-08-07T11:36:30.475Z,29.30
2022-08-07T11:39:09.588Z,29.40
2022-08-07T11:42:01.837Z,29.30
2022-08-07T11:44:52.493Z,29.10
2022-08-07T11:47:56.487Z,29.20
2022-08-07T11:50:44.696Z,29.30
2022-08-07T11:54:01.230Z,29.40
2022-08-07T11:56:52.190Z,29.20
2022-08-07T12:00:12.465Z,29.20
2022-08-07T12:02:52.429Z,29.30
2022-08-07T12:05:41.329Z,29.30
2022-08-07T12:08:31.447Z,29.40
2022-08-07T12:11:21.847Z,29.50
2022-08-07T12:14:03.510Z,29.60
2022-08-07T12:16:37.230Z,29.60
2022-08-07T12:19:21.332Z,29.50
2022-08-07T12:22:36.986Z,29.30
2022-08-07T12:26:00.215Z,29.10
2022-08-07T12:28:09.357Z,29.10
2022-08-07T12:30:46.775Z,29.00
2022-08-07T12:33:23.460Z,28.90
2022-08-07T12:36:02.282Z,28.70
2022-08-07T12:38:42.774Z,28.60
2022-08-07T12:41:14.299Z,28.50
2022-08-07T12:44:04.983Z,28.40
2022-08-07T12:46:52.052Z,28.20
2022-08-07T12:49:44.174Z,28.10
2022-08-07T12:52:34.046Z,28.00
2022-08-07T12:55:16.434Z,28.10
2022-08-07T12:58:00.842Z,28.10
2022-08-07T13:00:50.929Z,28.00
2022-08-07T13:04:02.203Z,28.20
2022-08-07T13:07:18.018Z,28.20
2022-08-07T13:10:39.833Z,28.30
2022-08-07T13:13:48.735Z,28.30
2022-08-07T13:16:23.758Z,28.40
2022-08-07T13:19:04.992Z,28.50
2022-08-07T13:21:57.501Z,28.60
2022-08-07T13:24:43.984Z,28.70
2022-08-07T13:28:05.826Z,28.70
2022-08-07T13:30:19.374Z,28.70
2022-08-07T13:34:31.224Z,28.70
2022-08-07T13:36:09.597Z,28.70
2022-08-07T13:38:57.725Z,28.70
2022-08-07T13:41:35.729Z,28.70
2022-08-07T13:44:13.030Z,28.80
2022-08-07T13:46:49.442Z,28.90
2022-08-07T13:50:34.183Z,29.00
2022-08-07T13:52:25.886Z,29.10
2022-08-07T13:55:07.839Z,29.10
2022-08-07T13:57:59.027Z,29.10
2022-08-07T14:00:50.506Z,29.10
2022-08-07T14:03:28.925Z,29.10
2022-08-07T14:05:58.814Z,29.00
2022-08-07T14:08:29.895Z,29.10
2022-08-07T14:11:14.688Z,29.00
2022-08-07T14:13:55.221Z,28.90
2022-08-07T14:16:31.501Z,28.90
2022-08-07T14:19:04.721Z,28.80
2022-08-07T14:22:02.445Z,28.70
2022-08-07T14:24:41.534Z,28.60
2022-08-07T14:28:09.921Z,28.60
2022-08-07T14:30:11.967Z,28.50
2022-08-07T14:32:46.275Z,28.40
2022-08-07T14:35:43.029Z,28.40
2022-08-07T14:38:26.552Z,28.40
2022-08-07T14:41:04.005Z,28.50
2022-08-07T14:46:31.393Z,28.50
2022-08-07T14:49:56.043Z,28.40
2022-08-07T14:52:04.355Z,28.30
2022-08-07T14:54:42.148Z,28.20
2022-08-07T15:02:56.855Z,28.20
2022-08-07T15:05:26.845Z,28.30
2022-08-07T15:07:59.373Z,28.30
2022-08-07T15:10:29.933Z,28.30
2022-08-07T15:13:05.602Z,28.30
2022-08-07T15:15:39.593Z,28.20
2022-08-07T15:18:28.625Z,28.20
2022-08-07T15:21:08.334Z,28.30
2022-08-07T15:25:15.574Z,28.30
2022-08-07T15:26:56.576Z,28.30
2022-08-07T15:30:10.284Z,28.20
2022-08-07T15:32:38.890Z,28.20
2022-08-07T15:35:16.905Z,28.30
2022-08-07T15:38:17.713Z,28.50
2022-08-07T15:40:39.668Z,28.70
2022-08-07T15:43:33.141Z,28.90
2022-08-07T15:46:32.489Z,29.00
2022-08-07T15:54:39.552Z,29.20
2022-08-07T15:57:39.241Z,29.30
2022-08-07T16:00:04.412Z,29.40
2022-08-07T16:02:41.655Z,29.50
2022-08-07T16:05:19.566Z,29.40
2022-08-07T16:08:32.439Z,29.30
2022-08-07T16:10:42.560Z,29.20
2022-08-07T16:13:59.248Z,29.20
2022-08-07T16:16:47.682Z,29.20
2022-08-07T16:19:58.768Z,29.30
2022-08-07T16:22:55.301Z,29.20
2022-08-07T16:26:01.395Z,29.20
2022-08-07T16:30:07.246Z,29.20
2022-08-07T16:31:50.950Z,29.30
2022-08-07T16:34:34.334Z,29.40
2022-08-07T16:38:06.299Z,29.50
2022-08-07T16:41:07.767Z,29.40
2022-08-07T16:44:31.789Z,29.40
2022-08-07T16:47:15.766Z,29.40
2022-08-07T16:50:36.321Z,29.10
2022-08-07T16:53:57.275Z,29.10
2022-08-07T16:56:37.243Z,29.00
2022-08-07T16:59:17.718Z,29.00
2022-08-07T17:02:09.071Z,29.00
2022-08-07T17:04:57.697Z,29.00
2022-08-07T17:07:55.459Z,29.00
2022-08-07T17:10:38.477Z,29.10
2022-08-07T17:13:38.888Z,29.10
2022-08-07T17:16:27.152Z,29.10
2022-08-07T17:19:05.123Z,29.00
2022-08-07T17:21:51.332Z,28.90
2022-08-07T17:24:53.704Z,28.80
2022-08-07T17:27:37.657Z,28.80
2022-08-07T17:30:26.667Z,28.80
2022-08-07T17:34:09.779Z,28.90
2022-08-07T17:36:13.642Z,28.80
2022-08-07T17:38:56.133Z,28.70
2022-08-07T17:42:02.065Z,28.60
2022-08-07T17:44:50.167Z,28.60
2022-08-07T17:47:38.485Z,28.50
2022-08-07T17:50:19.907Z,28.40
2022-08-07T17:52:56.636Z,28.30
2022-08-07T17:55:59.941Z,28.20
2022-08-07T17:58:31.288Z,28.20
2022-08-07T18:01:20.879Z,28.20
2022-08-07T18:04:16.117Z,28.20
2022-08-07T18:07:19.616Z,28.10
2022-08-07T18:10:05.674Z,28.10
2022-08-07T18:12:42.925Z,28.00
2022-08-07T18:15:20.168Z,27.90
2022-08-07T18:18:46.719Z,27.80
2022-08-07T18:21:04.569Z,27.80
2022-08-07T18:23:57.447Z,27.70
2022-08-07T18:26:40.742Z,27.70
2022-08-07T18:30:05.802Z,27.70
2022-08-07T18:32:21.896Z,27.60
2022-08-07T18:35:10.639Z,27.60
2022-08-07T18:38:56.078Z,27.60
2022-08-07T18:41:09.280Z,27.60
2022-08-07T18:43:57.630Z,27.60
2022-08-07T18:46:33.350Z,27.60
2022-08-07T18:50:30.812Z,27.60
2022-08-07T18:52:38.184Z,27.50
2022-08-07T18:55:40.778Z,27.40
2022-08-07T18:58:32.474Z,27.30
2022-08-07T19:01:08.752Z,27.30
2022-08-07T19:04:03.771Z,27.20
2022-08-07T19:06:49.358Z,27.10
2022-08-07T19:09:55.680Z,27.00
2022-08-07T19:12:26.507Z,26.90
2022-08-07T19:16:02.760Z,26.70
2022-08-07T19:18:34.289Z,26.70
2022-08-07T19:21:46.584Z,26.50
2022-08-07T19:24:07.699Z,26.40
2022-08-07T19:27:09.459Z,26.40
2022-08-07T19:30:57.947Z,26.40
2022-08-07T19:32:26.470Z,26.30
2022-08-07T19:35:04.360Z,26.30
2022-08-07T19:37:56.411Z,26.20
2022-08-07T19:40:31.075Z,26.10
2022-08-07T19:43:00.904Z,26.10
2022-08-07T19:46:08.255Z,26.00
2022-08-07T19:48:53.658Z,25.90
2022-08-07T19:51:50.883Z,25.80
2022-08-07T19:54:31.938Z,25.60
2022-08-07T19:58:02.865Z,25.50
2022-08-07T19:59:57.291Z,25.40
2022-08-07T20:02:30.137Z,25.20
2022-08-07T20:05:07.662Z,25.20
2022-08-07T20:07:47.257Z,25.10
2022-08-07T20:10:35.426Z,25.10
2022-08-07T20:13:23.080Z,25.10
2022-08-07T20:15:57.531Z,24.90
2022-08-07T20:18:32.634Z,24.80
2022-08-07T20:21:14.807Z,24.70
2022-08-07T20:23:54.725Z,24.60
2022-08-07T20:26:32.526Z,24.50
2022-08-07T20:29:47.083Z,24.40
2022-08-07T20:32:03.161Z,24.30
2022-08-07T20:34:50.143Z,24.20
2022-08-07T20:37:29.799Z,24.20
2022-08-07T20:40:05.301Z,24.20
2022-08-07T20:42:57.876Z,24.20
2022-08-07T20:46:26.043Z,24.10
2022-08-07T20:48:30.349Z,24.10
2022-08-07T20:51:01.985Z,24.00
2022-08-07T20:54:02.880Z,24.10
2022-08-07T20:56:30.104Z,24.10
2022-08-07T20:59:05.162Z,24.10
2022-08-07T21:01:45.742Z,24.10
2022-08-07T21:04:27.940Z,24.00
2022-08-07T21:07:04.531Z,24.00
2022-08-07T21:09:52.948Z,24.00
2022-08-07T21:12:31.650Z,24.00
2022-08-07T21:15:04.071Z,23.90
2022-08-07T21:18:01.849Z,23.90
2022-08-07T21:20:29.979Z,23.80
2022-08-07T21:23:07.997Z,23.70
2022-08-07T21:25:56.416Z,23.70
2022-08-07T21:28:48.234Z,23.70
2022-08-07T21:31:49.171Z,23.80
2022-08-07T21:34:26.661Z,23.80
2022-08-07T21:37:04.840Z,23.80
2022-08-07T21:39:51.562Z,23.80
2022-08-07T21:42:46.599Z,23.80
2022-08-07T21:46:09.502Z,23.80
2022-08-07T21:48:26.984Z,23.80
2022-08-07T21:51:08.179Z,23.80
2022-08-07T21:53:53.093Z,23.80
2022-08-07T21:56:39.852Z,23.70
2022-08-07T22:00:02.789Z,23.60
2022-08-07T22:02:27.668Z,23.50
2022-08-07T22:05:01.348Z,23.50
2022-08-07T22:07:48.608Z,23.50
2022-08-07T22:10:24.660Z,23.50
2022-08-07T22:12:56.651Z,23.50
2022-08-07T22:16:42.549Z,23.50
2022-08-07T22:18:34.714Z,23.50
2022-08-07T22:21:12.320Z,23.60
2022-08-07T22:23:55.989Z,23.60
2022-08-07T22:26:30.617Z,23.70
2022-08-07T22:29:14.053Z,23.70
2022-08-07T22:32:03.355Z,23.60
2022-08-07T22:34:53.032Z,23.50
2022-08-07T22:38:04.763Z,23.40
2022-08-07T22:40:39.568Z,23.40
2022-08-07T22:43:11.334Z,23.30
2022-08-07T22:46:41.007Z,23.20
2022-08-07T22:49:02.037Z,23.10
2022-08-07T22:52:02.346Z,23.00
2022-08-07T22:55:17.124Z,22.90
2022-08-07T22:58:11.540Z,22.80
2022-08-07T23:00:51.164Z,22.80
2022-08-07T23:03:57.465Z,22.80
2022-08-07T23:06:43.983Z,22.90
2022-08-07T23:10:06.080Z,22.90
2022-08-07T23:13:05.354Z,22.80
2022-08-07T23:16:06.314Z,22.70
2022-08-07T23:19:11.116Z,22.50
2022-08-07T23:21:52.486Z,22.40
2022-08-07T23:24:38.542Z,22.30
2022-08-07T23:27:34.511Z,22.30
2022-08-07T23:30:37.032Z,22.20
2022-08-07T23:34:36.357Z,22.20
2022-08-07T23:36:17.447Z,22.10
2022-08-07T23:39:08.578Z,22.10
2022-08-07T23:42:04.271Z,22.20
2022-08-07T23:44:46.457Z,22.30
2022-08-07T23:47:27.065Z,22.20
2022-08-07T23:50:37.767Z,22.20
2022-08-07T23:53:49.375Z,22.20
2022-08-07T23:56:21.406Z,22.20
2022-08-07T23:59:00.281Z,22.20
